createdAt,value
2022-10-22T00:01:44.329Z,40.20
2022-10-22T00:04:50.671Z,46.00
2022-10-22T00:07:52.470Z,46.30
2022-10-22T00:10:54.729Z,42.60
2022-10-22T00:13:58.130Z,41.60
2022-10-22T00:17:01.400Z,48.50
2022-10-22T00:20:04.578Z,44.40
2022-10-22T00:23:07.019Z,46.50
2022-10-22T00:26:08.967Z,44.30
2022-10-22T00:29:10.831Z,47.50
2022-10-22T00:32:12.901Z,44.60
2022-10-22T00:35:14.673Z,45.70
2022-10-22T00:38:16.394Z,44.50
2022-10-22T00:41:18.178Z,45.40
2022-10-22T00:44:57.774Z,45.80
2022-10-22T00:48:02.603Z,46.30
2022-10-22T00:51:06.751Z,38.60
2022-10-22T00:54:09.171Z,35.80
2022-10-22T00:57:10.961Z,40.50
2022-10-22T01:00:13.114Z,38.20
2022-10-22T01:03:15.379Z,41.70
2022-10-22T01:06:25.441Z,41.10
2022-10-22T01:09:52.407Z,41.30
2022-10-22T01:13:00.411Z,39.00
2022-10-22T01:16:12.021Z,38.20
2022-10-22T01:22:44.716Z,36.70
2022-10-22T01:26:05.426Z,36.60
2022-10-22T01:29:16.487Z,34.60
2022-10-22T01:32:23.914Z,33.90
2022-10-22T01:35:29.224Z,33.40
2022-10-22T01:38:31.426Z,34.50
2022-10-22T01:41:34.830Z,36.60
2022-10-22T01:44:37.635Z,33.90
2022-10-22T01:47:53.918Z,34.20
2022-10-22T01:50:58.557Z,38.40
2022-10-22T01:54:07.048Z,38.90
2022-10-22T01:57:08.719Z,38.00
2022-10-22T02:00:12.683Z,37.20
2022-10-22T02:03:21.343Z,35.90
2022-10-22T02:06:26.106Z,36.50
2022-10-22T02:09:29.207Z,36.90
2022-10-22T02:12:32.698Z,36.70
2022-10-22T02:15:36.273Z,37.00
2022-10-22T02:18:40.789Z,34.70
2022-10-22T02:21:42.927Z,34.10
2022-10-22T02:24:45.018Z,33.60
2022-10-22T02:27:49.882Z,32.30
2022-10-22T02:31:02.091Z,32.80
2022-10-22T02:34:10.234Z,33.20
2022-10-22T02:37:12.832Z,29.70
2022-10-22T02:40:14.726Z,30.10
2022-10-22T02:43:18.473Z,30.60
2022-10-22T02:46:20.246Z,32.50
2022-10-22T02:49:22.074Z,31.80
2022-10-22T02:52:23.850Z,32.20
2022-10-22T02:55:25.619Z,30.40
2022-10-22T02:58:27.352Z,28.50
2022-10-22T03:01:29.247Z,31.50
2022-10-22T03:04:31.157Z,30.20
2022-10-22T03:07:33.630Z,32.70
2022-10-22T03:10:35.440Z,29.10
2022-10-22T03:13:37.932Z,29.40
2022-10-22T03:16:39.698Z,29.30
2022-10-22T03:19:42.259Z,28.10
2022-10-22T03:22:45.116Z,37.40
2022-10-22T03:25:48.486Z,31.10
2022-10-22T03:28:50.362Z,29.20
2022-10-22T03:31:52.842Z,31.30
2022-10-22T03:34:54.686Z,32.80
2022-10-22T03:37:56.547Z,36.60
2022-10-22T03:40:58.639Z,41.40
2022-10-22T03:44:02.135Z,38.70
2022-10-22T03:47:04.398Z,38.40
2022-10-22T03:50:06.925Z,34.50
2022-10-22T03:53:10.840Z,34.40
2022-10-22T03:56:13.502Z,30.10
2022-10-22T03:59:15.541Z,31.30
2022-10-22T04:02:17.372Z,31.30
2022-10-22T04:05:19.115Z,30.50
2022-10-22T04:08:20.828Z,27.30
2022-10-22T04:14:24.311Z,27.50
2022-10-22T04:17:26.078Z,27.90
2022-10-22T04:23:29.496Z,38.30
2022-10-22T04:26:31.321Z,35.80
2022-10-22T04:29:33.186Z,33.00
2022-10-22T04:32:34.940Z,36.70
2022-10-22T04:35:39.928Z,39.30
2022-10-22T04:38:43.003Z,36.80
2022-10-22T04:41:44.772Z,36.80
2022-10-22T04:44:46.649Z,37.50
2022-10-22T04:47:48.411Z,38.30
2022-10-22T04:50:50.303Z,33.90
2022-10-22T04:53:52.246Z,34.30
2022-10-22T04:56:53.946Z,32.70
2022-10-22T05:02:57.406Z,28.50
2022-10-22T05:09:08.832Z,31.30
2022-10-22T05:12:10.666Z,29.80
2022-10-22T05:18:15.867Z,40.90
2022-10-22T05:21:19.951Z,35.90
2022-10-22T05:24:22.175Z,35.30
2022-10-22T05:27:23.858Z,31.80
2022-10-22T05:33:29.083Z,31.60
2022-10-22T05:36:30.930Z,30.60
2022-10-22T05:39:36.937Z,34.30
2022-10-22T05:42:39.050Z,31.50
2022-10-22T05:45:42.421Z,35.50
2022-10-22T05:48:44.791Z,29.20
2022-10-22T05:51:47.169Z,28.70
2022-10-22T05:54:48.930Z,29.30
2022-10-22T05:57:50.735Z,28.60
2022-10-22T06:00:52.511Z,28.50
2022-10-22T06:04:01.981Z,28.60
2022-10-22T06:07:03.994Z,36.80
2022-10-22T06:10:06.788Z,42.50
2022-10-22T06:13:08.610Z,42.40
2022-10-22T06:16:10.673Z,37.40
2022-10-22T06:19:16.915Z,34.90
2022-10-22T06:22:18.711Z,32.80
2022-10-22T06:25:20.515Z,30.50
2022-10-22T06:31:25.940Z,31.40
2022-10-22T06:34:27.701Z,29.30
2022-10-22T06:37:29.407Z,32.60
2022-10-22T06:40:31.300Z,34.00
2022-10-22T06:43:33.106Z,33.80
2022-10-22T06:46:34.887Z,38.10
2022-10-22T06:49:36.928Z,37.50
2022-10-22T06:52:38.787Z,32.40
2022-10-22T06:55:40.589Z,33.10
2022-10-22T06:58:42.431Z,27.80
2022-10-22T07:01:44.408Z,26.90
2022-10-22T07:04:46.347Z,26.40
2022-10-22T07:07:48.168Z,26.50
2022-10-22T07:10:49.961Z,28.20
2022-10-22T07:13:53.963Z,31.00
2022-10-22T07:16:55.973Z,29.50
2022-10-22T07:19:58.899Z,30.90
2022-10-22T07:23:00.633Z,30.30
2022-10-22T07:26:02.968Z,31.20
2022-10-22T07:29:05.152Z,31.70
2022-10-22T07:32:06.995Z,30.60
2022-10-22T07:35:09.140Z,27.00
2022-10-22T07:38:10.899Z,27.90
2022-10-22T07:41:13.734Z,25.80
2022-10-22T07:44:15.554Z,25.10
2022-10-22T07:47:17.342Z,27.40
2022-10-22T07:50:19.409Z,29.30
2022-10-22T07:53:24.307Z,30.10
2022-10-22T07:56:26.061Z,28.00
2022-10-22T07:59:27.860Z,27.40
2022-10-22T08:02:29.591Z,28.00
2022-10-22T08:05:31.416Z,28.10
2022-10-22T08:08:33.671Z,27.00
2022-10-22T08:11:35.480Z,26.60
2022-10-22T08:14:37.257Z,25.60
2022-10-22T08:17:39.237Z,26.00
2022-10-22T08:20:42.412Z,25.50
2022-10-22T08:23:44.196Z,28.30
2022-10-22T08:26:46.308Z,27.60
2022-10-22T08:29:48.371Z,28.00
2022-10-22T08:32:53.086Z,24.70
2022-10-22T08:35:56.633Z,25.00
2022-10-22T08:38:58.356Z,24.10
2022-10-22T08:42:25.306Z,22.80
2022-10-22T08:45:52.510Z,21.90
2022-10-22T08:48:56.378Z,22.90
2022-10-22T08:51:58.727Z,23.30
2022-10-22T08:55:02.335Z,22.80
2022-10-22T08:58:19.057Z,22.10
2022-10-22T09:01:37.268Z,21.10
2022-10-22T09:04:48.970Z,22.00
2022-10-22T09:07:50.942Z,22.40
2022-10-22T09:11:06.180Z,23.40
2022-10-22T09:17:34.124Z,23.00
2022-10-22T09:20:44.582Z,24.30
2022-10-22T09:24:03.575Z,24.40
2022-10-22T09:27:15.947Z,24.10
2022-10-22T09:30:20.443Z,22.90
2022-10-22T09:33:27.617Z,23.50
2022-10-22T09:36:30.110Z,22.60
2022-10-22T09:39:34.830Z,23.70
2022-10-22T09:42:36.481Z,21.50
2022-10-22T09:45:38.171Z,23.50
2022-10-22T09:48:42.310Z,22.50
2022-10-22T09:51:57.701Z,22.90
2022-10-22T09:55:02.661Z,22.00
2022-10-22T09:58:04.934Z,20.60
2022-10-22T10:01:06.746Z,20.80
2022-10-22T10:04:14.619Z,19.70
2022-10-22T10:07:19.659Z,19.20
2022-10-22T10:10:50.804Z,19.00
2022-10-22T10:14:06.956Z,18.50
2022-10-22T10:17:27.563Z,19.70
2022-10-22T10:20:59.104Z,20.40
2022-10-22T10:27:30.034Z,19.60
2022-10-22T10:30:32.845Z,19.30
2022-10-22T10:33:47.400Z,19.50
2022-10-22T10:36:59.860Z,21.00
2022-10-22T10:40:17.129Z,21.00
2022-10-22T10:43:40.325Z,20.50
2022-10-22T10:46:50.462Z,19.80
2022-10-22T10:49:54.987Z,18.50
2022-10-22T10:52:56.912Z,17.60
2022-10-22T10:56:02.942Z,17.40
2022-10-22T10:59:18.787Z,17.60
2022-10-22T11:02:48.405Z,17.50
2022-10-22T11:05:54.579Z,21.80
2022-10-22T11:09:01.251Z,19.50
2022-10-22T11:12:07.467Z,19.30
2022-10-22T11:15:16.830Z,20.70
2022-10-22T11:18:32.683Z,20.00
2022-10-22T11:21:42.174Z,19.90
2022-10-22T11:24:50.888Z,20.50
2022-10-22T11:28:03.174Z,21.20
2022-10-22T11:31:16.082Z,21.70
2022-10-22T11:34:33.835Z,22.60
2022-10-22T11:37:39.295Z,22.10
2022-10-22T11:40:48.797Z,22.10
2022-10-22T11:43:59.040Z,22.90
2022-10-22T11:47:24.497Z,24.40
2022-10-22T11:50:27.786Z,24.90
2022-10-22T11:53:37.766Z,24.40
2022-10-22T11:56:39.590Z,31.10
2022-10-22T11:59:49.770Z,40.80
2022-10-22T12:03:15.959Z,39.60
2022-10-22T12:06:21.795Z,34.80
2022-10-22T12:09:26.944Z,35.80
2022-10-22T12:12:36.202Z,29.70
2022-10-22T12:15:46.940Z,33.50
2022-10-22T12:18:49.146Z,45.60
2022-10-22T12:22:07.705Z,42.20
2022-10-22T12:25:18.250Z,29.50
2022-10-22T12:28:20.127Z,29.80
2022-10-22T12:31:21.940Z,29.70
2022-10-22T12:34:25.249Z,30.70
2022-10-22T12:37:29.635Z,30.80
2022-10-22T12:40:35.234Z,29.90
2022-10-22T12:43:39.660Z,30.60
2022-10-22T12:46:42.381Z,30.10
2022-10-22T12:49:48.715Z,30.80
2022-10-22T12:52:50.723Z,30.50
2022-10-22T12:55:54.492Z,32.00
2022-10-22T12:59:02.258Z,34.80
2022-10-22T13:02:22.920Z,34.10
2022-10-22T13:05:28.132Z,37.80
2022-10-22T13:08:29.969Z,34.80
2022-10-22T13:11:34.987Z,31.80
2022-10-22T13:14:38.644Z,33.40
2022-10-22T13:17:42.461Z,34.40
2022-10-22T13:21:01.830Z,33.00
2022-10-22T13:24:20.385Z,32.20
2022-10-22T13:27:23.757Z,33.20
2022-10-22T13:30:27.956Z,34.80
2022-10-22T13:33:33.777Z,43.70
2022-10-22T13:36:35.973Z,45.00
2022-10-22T13:39:37.792Z,44.40
2022-10-22T13:42:40.187Z,45.20
2022-10-22T13:45:44.727Z,46.80
2022-10-22T13:48:48.258Z,41.00
2022-10-22T13:51:51.508Z,41.20
2022-10-22T13:54:53.389Z,40.70
2022-10-22T13:58:10.215Z,40.60
2022-10-22T14:01:27.929Z,43.20
2022-10-22T14:04:29.883Z,40.70
2022-10-22T14:07:31.690Z,39.40
2022-10-22T14:10:33.517Z,40.80
2022-10-22T14:13:35.433Z,41.50
2022-10-22T14:16:37.698Z,42.10
2022-10-22T14:19:39.616Z,40.90
2022-10-22T14:22:41.515Z,39.70
2022-10-22T14:25:43.241Z,36.80
2022-10-22T14:29:07.961Z,38.80
2022-10-22T14:32:15.141Z,39.30
2022-10-22T14:35:20.516Z,44.20
2022-10-22T14:38:22.654Z,45.00
2022-10-22T14:41:26.141Z,47.20
2022-10-22T14:44:27.838Z,46.60
2022-10-22T14:47:29.802Z,47.30
2022-10-22T14:50:31.607Z,50.00
2022-10-22T14:53:33.640Z,50.80
2022-10-22T14:59:43.068Z,58.30
2022-10-22T15:02:45.412Z,51.60
2022-10-22T15:05:47.330Z,52.80
2022-10-22T15:08:49.317Z,53.20
2022-10-22T15:11:51.434Z,53.70
2022-10-22T15:14:53.309Z,53.80
2022-10-22T15:17:54.998Z,54.00
2022-10-22T15:20:57.557Z,53.70
2022-10-22T15:24:01.165Z,54.40
2022-10-22T15:27:03.612Z,55.90
2022-10-22T15:30:07.334Z,52.50
2022-10-22T15:33:09.171Z,54.10
2022-10-22T15:36:16.210Z,56.00
2022-10-22T15:39:18.577Z,57.50
2022-10-22T15:42:20.434Z,68.30
2022-10-22T15:45:24.430Z,84.30
2022-10-22T15:48:26.199Z,79.40
2022-10-22T15:51:28.044Z,70.40
2022-10-22T15:54:30.655Z,65.90
2022-10-22T15:57:33.201Z,70.60
2022-10-22T16:00:35.037Z,65.80
2022-10-22T16:03:37.272Z,66.30
2022-10-22T16:06:45.675Z,66.90
2022-10-22T16:09:48.481Z,72.40
2022-10-22T16:12:51.762Z,73.70
2022-10-22T16:15:56.399Z,72.60
2022-10-22T16:18:58.479Z,70.50
2022-10-22T16:22:02.197Z,71.80
2022-10-22T16:25:04.245Z,73.50
2022-10-22T16:28:06.815Z,71.80
2022-10-22T16:31:12.173Z,68.80
2022-10-22T16:34:13.925Z,71.20
2022-10-22T16:37:16.078Z,71.20
2022-10-22T16:40:18.001Z,72.50
2022-10-22T16:43:19.966Z,71.80
2022-10-22T16:46:22.695Z,71.50
2022-10-22T16:49:24.644Z,71.90
2022-10-22T16:52:26.785Z,73.70
2022-10-22T16:55:28.486Z,73.80
2022-10-22T16:58:30.663Z,75.40
2022-10-22T17:01:36.726Z,75.10
2022-10-22T17:04:41.595Z,75.20
2022-10-22T17:07:43.267Z,72.10
2022-10-22T17:10:45.062Z,73.80
2022-10-22T17:13:49.094Z,75.70
2022-10-22T17:16:53.878Z,77.10
2022-10-22T17:19:55.619Z,76.80
2022-10-22T17:22:57.596Z,77.30
2022-10-22T17:26:01.862Z,87.70
2022-10-22T17:29:04.571Z,80.60
2022-10-22T17:32:06.472Z,89.50
2022-10-22T17:35:08.772Z,92.20
2022-10-22T17:38:10.532Z,86.80
2022-10-22T17:41:17.994Z,85.10
2022-10-22T17:44:19.742Z,89.80
2022-10-22T17:47:22.299Z,84.60
2022-10-22T17:50:24.051Z,83.40
2022-10-22T17:53:25.764Z,85.20
2022-10-22T17:56:30.023Z,89.40
2022-10-22T17:59:32.676Z,91.90
2022-10-22T18:02:34.631Z,90.30
2022-10-22T18:05:36.280Z,96.10
2022-10-22T18:08:38.045Z,94.40
2022-10-22T18:11:40.167Z,89.60
2022-10-22T18:14:41.859Z,90.70
2022-10-22T18:17:44.046Z,95.70
2022-10-22T18:20:50.833Z,93.50
2022-10-22T18:23:53.117Z,94.70
2022-10-22T18:26:55.395Z,95.70
2022-10-22T18:29:57.474Z,93.30
2022-10-22T18:32:59.237Z,91.40
2022-10-22T18:36:06.795Z,86.70
2022-10-22T18:39:08.800Z,86.90
2022-10-22T18:42:10.587Z,88.30
2022-10-22T18:45:12.362Z,92.70
2022-10-22T18:48:18.189Z,94.50
2022-10-22T18:51:20.151Z,93.60
2022-10-22T18:54:23.627Z,90.60
2022-10-22T18:57:26.130Z,87.90
2022-10-22T19:00:27.901Z,85.40
2022-10-22T19:03:29.559Z,87.40
2022-10-22T19:06:35.713Z,81.80
2022-10-22T19:09:37.614Z,79.30
2022-10-22T19:12:39.411Z,81.60
2022-10-22T19:15:41.285Z,73.90
2022-10-22T19:18:43.009Z,71.30
2022-10-22T19:21:45.300Z,72.70
2022-10-22T19:24:49.535Z,70.40
2022-10-22T19:27:51.471Z,68.10
2022-10-22T19:30:54.716Z,69.80
2022-10-22T19:33:56.935Z,65.40
2022-10-22T19:36:59.052Z,63.60
2022-10-22T19:40:00.909Z,59.00
2022-10-22T19:43:02.655Z,55.20
2022-10-22T19:46:05.946Z,57.40
2022-10-22T19:49:07.770Z,52.10
2022-10-22T19:52:09.624Z,48.40
2022-10-22T19:55:11.595Z,45.60
2022-10-22T19:58:14.036Z,49.30
2022-10-22T20:01:17.569Z,45.90
2022-10-22T20:04:19.723Z,48.30
2022-10-22T20:07:22.574Z,48.30
2022-10-22T20:10:24.333Z,48.50
2022-10-22T20:13:26.278Z,43.20
2022-10-22T20:16:30.266Z,49.70
2022-10-22T20:19:32.822Z,47.40
2022-10-22T20:22:34.484Z,44.60
2022-10-22T20:25:41.590Z,47.20
2022-10-22T20:28:43.370Z,48.90
2022-10-22T20:31:45.746Z,46.50
2022-10-22T20:34:47.592Z,47.70
2022-10-22T20:37:49.800Z,52.80
2022-10-22T20:40:59.834Z,52.10
2022-10-22T20:44:02.082Z,53.20
2022-10-22T20:47:06.601Z,51.90
2022-10-22T20:50:09.746Z,53.40
2022-10-22T20:53:13.497Z,53.10
2022-10-22T20:56:18.852Z,52.60
2022-10-22T20:59:24.254Z,55.40
2022-10-22T21:02:28.158Z,53.40
2022-10-22T21:05:29.866Z,52.20
2022-10-22T21:08:32.247Z,52.60
2022-10-22T21:11:35.102Z,52.30
2022-10-22T21:14:36.976Z,54.20
2022-10-22T21:17:40.441Z,55.20
2022-10-22T21:20:42.206Z,53.20
2022-10-22T21:23:44.101Z,54.30
2022-10-22T21:26:46.491Z,54.40
2022-10-22T21:29:48.177Z,54.90
2022-10-22T21:32:49.986Z,56.10
2022-10-22T21:35:53.541Z,54.60
2022-10-22T21:38:55.423Z,56.00
2022-10-22T21:41:57.131Z,53.50
2022-10-22T21:44:58.955Z,53.30
2022-10-22T21:48:00.819Z,53.90
2022-10-22T21:51:11.003Z,55.20
2022-10-22T21:54:13.152Z,55.20
2022-10-22T21:57:15.017Z,54.30
2022-10-22T22:00:20.766Z,54.60
2022-10-22T22:03:23.613Z,53.40
2022-10-22T22:06:29.543Z,54.40
2022-10-22T22:09:34.090Z,53.60
2022-10-22T22:12:36.402Z,52.50
2022-10-22T22:15:38.082Z,52.60
2022-10-22T22:18:41.015Z,53.80
2022-10-22T22:21:45.966Z,51.70
2022-10-22T22:24:47.830Z,53.30
2022-10-22T22:27:49.745Z,49.90
2022-10-22T22:30:51.725Z,50.10
2022-10-22T22:34:22.844Z,49.40
2022-10-22T22:37:24.663Z,47.90
2022-10-22T22:40:29.154Z,48.90
2022-10-22T22:43:32.562Z,50.50
2022-10-22T22:46:34.476Z,49.30
2022-10-22T22:49:37.038Z,51.10
2022-10-22T22:52:39.000Z,51.20
2022-10-22T22:55:41.061Z,51.80
2022-10-22T22:58:43.203Z,52.00
2022-10-22T23:01:48.023Z,54.10
2022-10-22T23:05:10.676Z,55.80
2022-10-22T23:08:26.531Z,55.90
2022-10-22T23:11:45.628Z,54.90
2022-10-22T23:14:51.476Z,52.90
2022-10-22T23:17:53.285Z,51.40
2022-10-22T23:20:55.039Z,50.90
2022-10-22T23:24:00.224Z,49.60
2022-10-22T23:27:04.108Z,49.30
2022-10-22T23:30:06.474Z,45.60
2022-10-22T23:33:12.230Z,41.40
2022-10-22T23:36:14.333Z,40.40
2022-10-22T23:39:19.737Z,38.40
2022-10-22T23:42:21.532Z,36.50
2022-10-22T23:45:23.357Z,38.00
2022-10-22T23:48:25.261Z,36.90
2022-10-22T23:51:27.544Z,38.60
2022-10-22T23:54:29.321Z,38.60
2022-10-22T23:57:31.082Z,39.20
